sensor_id;sensor_type;location;lat;lon;timestamp;temperature;humidity
16384;DHT22;8301;51.440;6.610;2023-02-15T00:01:05;3.30;99.90
16384;DHT22;8301;51.440;6.610;2023-02-15T00:03:32;3.30;99.90
16384;DHT22;8301;51.440;6.610;2023-02-15T00:05:59;3.30;99.90
16384;DHT22;8301;51.440;6.610;2023-02-15T00:08:26;3.30;99.90
16384;DHT22;8301;51.440;6.610;2023-02-15T00:10:53;3.30;99.90
16384;DHT22;8301;51.440;6.610;2023-02-15T00:13:19;3.30;99.90
16384;DHT22;8301;51.440;6.610;2023-02-15T00:15:46;3.30;99.90
16384;DHT22;8301;51.440;6.610;2023-02-15T00:18:15;3.20;99.90
16384;DHT22;8301;51.440;6.610;2023-02-15T00:20:42;3.20;99.90
16384;DHT22;8301;51.440;6.610;2023-02-15T00:23:08;3.20;99.90
16384;DHT22;8301;51.440;6.610;2023-02-15T00:25:36;3.20;99.90
16384;DHT22;8301;51.440;6.610;2023-02-15T00:28:03;3.20;99.90
16384;DHT22;8301;51.440;6.610;2023-02-15T00:30:31;3.10;99.90
16384;DHT22;8301;51.440;6.610;2023-02-15T00:32:58;3.10;99.90
16384;DHT22;8301;51.440;6.610;2023-02-15T00:35:24;3.10;99.90
16384;DHT22;8301;51.440;6.610;2023-02-15T00:37:51;3.10;99.90
16384;DHT22;8301;51.440;6.610;2023-02-15T00:40:18;3.10;99.90
16384;DHT22;8301;51.440;6.610;2023-02-15T00:42:45;3.10;99.90
16384;DHT22;8301;51.440;6.610;2023-02-15T00:45:15;3.10;99.90
16384;DHT22;8301;51.440;6.610;2023-02-15T00:47:42;3.00;99.90
16384;DHT22;8301;51.440;6.610;2023-02-15T00:50:09;3.10;99.90
16384;DHT22;8301;51.440;6.610;2023-02-15T00:52:35;3.00;99.90
16384;DHT22;8301;51.440;6.610;2023-02-15T00:55:03;3.00;99.90
16384;DHT22;8301;51.440;6.610;2023-02-15T00:57:30;3.00;99.90
16384;DHT22;8301;51.440;6.610;2023-02-15T00:59:57;3.00;99.90
16384;DHT22;8301;51.440;6.610;2023-02-15T01:02:24;3.00;99.90
16384;DHT22;8301;51.440;6.610;2023-02-15T01:04:51;3.00;99.90
16384;DHT22;8301;51.440;6.610;2023-02-15T01:07:18;3.00;99.90
16384;DHT22;8301;51.440;6.610;2023-02-15T01:09:45;3.00;99.90
16384;DHT22;8301;51.440;6.610;2023-02-15T01:12:12;3.00;99.90
16384;DHT22;8301;51.440;6.610;2023-02-15T01:14:39;3.00;99.90
16384;DHT22;8301;51.440;6.610;2023-02-15T01:17:05;3.00;99.90
16384;DHT22;8301;51.440;6.610;2023-02-15T01:19:32;2.90;99.90
16384;DHT22;8301;51.440;6.610;2023-02-15T01:21:59;2.90;99.90
16384;DHT22;8301;51.440;6.610;2023-02-15T01:24:26;2.90;99.90
16384;DHT22;8301;51.440;6.610;2023-02-15T01:26:53;2.90;99.90
16384;DHT22;8301;51.440;6.610;2023-02-15T01:29:19;2.90;99.90
16384;DHT22;8301;51.440;6.610;2023-02-15T01:31:46;2.80;99.90
16384;DHT22;8301;51.440;6.610;2023-02-15T01:34:13;2.80;99.90
16384;DHT22;8301;51.440;6.610;2023-02-15T01:36:40;2.80;99.90
16384;DHT22;8301;51.440;6.610;2023-02-15T01:39:07;2.80;99.90
16384;DHT22;8301;51.440;6.610;2023-02-15T01:41:35;2.80;99.90
16384;DHT22;8301;51.440;6.610;2023-02-15T01:44:02;2.80;99.90
16384;DHT22;8301;51.440;6.610;2023-02-15T01:46:34;2.80;99.90
16384;DHT22;8301;51.440;6.610;2023-02-15T01:49:03;2.80;99.90
16384;DHT22;8301;51.440;6.610;2023-02-15T01:51:30;2.80;99.90
16384;DHT22;8301;51.440;6.610;2023-02-15T01:54:03;2.80;99.90
16384;DHT22;8301;51.440;6.610;2023-02-15T01:56:27;2.80;99.90
16384;DHT22;8301;51.440;6.610;2023-02-15T01:58:55;2.70;99.90
16384;DHT22;8301;51.440;6.610;2023-02-15T02:01:26;2.70;99.90
16384;DHT22;8301;51.440;6.610;2023-02-15T02:06:22;2.70;99.90
16384;DHT22;8301;51.440;6.610;2023-02-15T02:08:50;2.70;99.90
16384;DHT22;8301;51.440;6.610;2023-02-15T02:11:18;2.70;99.90
16384;DHT22;8301;51.440;6.610;2023-02-15T02:13:44;2.60;99.90
16384;DHT22;8301;51.440;6.610;2023-02-15T02:24:03;2.50;99.90
16384;DHT22;8301;51.440;6.610;2023-02-15T02:29:20;2.40;99.90
16384;DHT22;8301;51.440;6.610;2023-02-15T02:36:44;2.40;99.90
16384;DHT22;8301;51.440;6.610;2023-02-15T02:44:49;2.40;99.90
16384;DHT22;8301;51.440;6.610;2023-02-15T02:49:35;2.30;99.90
16384;DHT22;8301;51.440;6.610;2023-02-15T02:52:03;2.30;99.90
16384;DHT22;8301;51.440;6.610;2023-02-15T02:54:31;2.30;99.90
16384;DHT22;8301;51.440;6.610;2023-02-15T02:56:59;2.30;99.90
16384;DHT22;8301;51.440;6.610;2023-02-15T02:59:32;2.30;99.90
16384;DHT22;8301;51.440;6.610;2023-02-15T03:02:05;2.30;99.90
16384;DHT22;8301;51.440;6.610;2023-02-15T03:04:39;2.20;99.90
16384;DHT22;8301;51.440;6.610;2023-02-15T03:07:09;2.20;99.90
16384;DHT22;8301;51.440;6.610;2023-02-15T03:09:37;2.20;99.90
16384;DHT22;8301;51.440;6.610;2023-02-15T03:12:13;2.20;99.90
16384;DHT22;8301;51.440;6.610;2023-02-15T03:14:41;2.20;99.90
16384;DHT22;8301;51.440;6.610;2023-02-15T03:17:10;2.10;99.90
16384;DHT22;8301;51.440;6.610;2023-02-15T03:19:38;2.10;99.90
16384;DHT22;8301;51.440;6.610;2023-02-15T03:22:10;2.10;99.90
16384;DHT22;8301;51.440;6.610;2023-02-15T03:24:54;2.10;99.90
16384;DHT22;8301;51.440;6.610;2023-02-15T03:27:22;2.00;99.90
16384;DHT22;8301;51.440;6.610;2023-02-15T03:29:53;2.00;99.90
16384;DHT22;8301;51.440;6.610;2023-02-15T03:32:16;2.00;99.90
16384;DHT22;8301;51.440;6.610;2023-02-15T03:34:43;2.00;99.90
16384;DHT22;8301;51.440;6.610;2023-02-15T03:37:13;2.00;99.90
16384;DHT22;8301;51.440;6.610;2023-02-15T03:39:47;2.00;99.90
16384;DHT22;8301;51.440;6.610;2023-02-15T03:42:14;2.00;99.90
16384;DHT22;8301;51.440;6.610;2023-02-15T03:45:27;2.00;99.90
16384;DHT22;8301;51.440;6.610;2023-02-15T03:49:53;2.00;99.90
16384;DHT22;8301;51.440;6.610;2023-02-15T03:52:17;2.00;99.90
16384;DHT22;8301;51.440;6.610;2023-02-15T03:54:45;2.00;99.90
16384;DHT22;8301;51.440;6.610;2023-02-15T03:59:58;1.90;99.90
16384;DHT22;8301;51.440;6.610;2023-02-15T04:02:52;1.90;99.90
16384;DHT22;8301;51.440;6.610;2023-02-15T04:05:16;1.90;99.90
16384;DHT22;8301;51.440;6.610;2023-02-15T04:07:45;1.90;99.90
16384;DHT22;8301;51.440;6.610;2023-02-15T04:10:12;1.80;99.90
16384;DHT22;8301;51.440;6.610;2023-02-15T04:12:49;1.80;99.90
16384;DHT22;8301;51.440;6.610;2023-02-15T04:15:16;1.80;99.90
16384;DHT22;8301;51.440;6.610;2023-02-15T04:18:02;1.80;99.90
16384;DHT22;8301;51.440;6.610;2023-02-15T04:20:29;1.80;99.90
16384;DHT22;8301;51.440;6.610;2023-02-15T04:23:14;1.70;99.90
16384;DHT22;8301;51.440;6.610;2023-02-15T04:25:58;1.70;99.90
16384;DHT22;8301;51.440;6.610;2023-02-15T04:28:27;1.70;99.90
16384;DHT22;8301;51.440;6.610;2023-02-15T04:31:05;1.70;99.90
16384;DHT22;8301;51.440;6.610;2023-02-15T04:33:32;1.70;99.90
16384;DHT22;8301;51.440;6.610;2023-02-15T04:35:59;1.70;99.90
16384;DHT22;8301;51.440;6.610;2023-02-15T04:38:26;1.70;99.90
16384;DHT22;8301;51.440;6.610;2023-02-15T04:40:52;1.70;99.90
16384;DHT22;8301;51.440;6.610;2023-02-15T04:43:19;1.70;99.90
16384;DHT22;8301;51.440;6.610;2023-02-15T04:45:50;1.70;99.90
16384;DHT22;8301;51.440;6.610;2023-02-15T04:48:17;1.60;99.90
16384;DHT22;8301;51.440;6.610;2023-02-15T04:50:44;1.60;99.90
16384;DHT22;8301;51.440;6.610;2023-02-15T04:53:11;1.60;99.90
16384;DHT22;8301;51.440;6.610;2023-02-15T04:55:38;1.60;99.90
16384;DHT22;8301;51.440;6.610;2023-02-15T04:58:05;1.60;99.90
16384;DHT22;8301;51.440;6.610;2023-02-15T05:00:32;1.60;99.90
16384;DHT22;8301;51.440;6.610;2023-02-15T05:02:58;1.60;99.90
16384;DHT22;8301;51.440;6.610;2023-02-15T05:05:27;1.60;99.90
16384;DHT22;8301;51.440;6.610;2023-02-15T05:10:23;1.60;99.90
16384;DHT22;8301;51.440;6.610;2023-02-15T05:13:01;1.60;99.90
16384;DHT22;8301;51.440;6.610;2023-02-15T05:15:28;1.60;99.90
16384;DHT22;8301;51.440;6.610;2023-02-15T05:17:55;1.60;99.90
16384;DHT22;8301;51.440;6.610;2023-02-15T05:20:24;1.60;99.90
16384;DHT22;8301;51.440;6.610;2023-02-15T05:22:54;1.60;99.90
16384;DHT22;8301;51.440;6.610;2023-02-15T05:25:20;1.60;99.90
16384;DHT22;8301;51.440;6.610;2023-02-15T05:28:07;1.60;99.90
16384;DHT22;8301;51.440;6.610;2023-02-15T05:30:48;1.60;99.90
16384;DHT22;8301;51.440;6.610;2023-02-15T05:33:15;1.60;99.90
16384;DHT22;8301;51.440;6.610;2023-02-15T05:35:42;1.70;99.90
16384;DHT22;8301;51.440;6.610;2023-02-15T05:38:09;1.60;99.90
16384;DHT22;8301;51.440;6.610;2023-02-15T05:40:36;1.60;99.90
16384;DHT22;8301;51.440;6.610;2023-02-15T05:43:02;1.70;99.90
16384;DHT22;8301;51.440;6.610;2023-02-15T05:45:29;1.70;99.90
16384;DHT22;8301;51.440;6.610;2023-02-15T05:47:56;1.70;99.90
16384;DHT22;8301;51.440;6.610;2023-02-15T05:50:24;1.70;99.90
16384;DHT22;8301;51.440;6.610;2023-02-15T05:52:51;1.70;99.90
16384;DHT22;8301;51.440;6.610;2023-02-15T05:55:18;1.70;99.90
16384;DHT22;8301;51.440;6.610;2023-02-15T05:57:45;1.60;99.90
16384;DHT22;8301;51.440;6.610;2023-02-15T06:00:12;1.60;99.90
16384;DHT22;8301;51.440;6.610;2023-02-15T06:02:40;1.60;99.90
16384;DHT22;8301;51.440;6.610;2023-02-15T06:05:07;1.60;99.90
16384;DHT22;8301;51.440;6.610;2023-02-15T06:07:34;1.70;99.90
16384;DHT22;8301;51.440;6.610;2023-02-15T06:10:01;1.80;99.90
16384;DHT22;8301;51.440;6.610;2023-02-15T06:12:27;1.70;99.90
16384;DHT22;8301;51.440;6.610;2023-02-15T06:14:55;1.70;99.90
16384;DHT22;8301;51.440;6.610;2023-02-15T06:17:22;1.70;99.90
16384;DHT22;8301;51.440;6.610;2023-02-15T06:19:49;1.70;99.90
16384;DHT22;8301;51.440;6.610;2023-02-15T06:22:17;1.70;99.90
16384;DHT22;8301;51.440;6.610;2023-02-15T06:24:43;1.70;99.90
16384;DHT22;8301;51.440;6.610;2023-02-15T06:27:10;1.70;99.90
16384;DHT22;8301;51.440;6.610;2023-02-15T06:29:37;1.70;99.90
16384;DHT22;8301;51.440;6.610;2023-02-15T06:32:04;1.70;99.90
16384;DHT22;8301;51.440;6.610;2023-02-15T06:34:32;1.70;99.90
16384;DHT22;8301;51.440;6.610;2023-02-15T06:36:58;1.70;99.90
16384;DHT22;8301;51.440;6.610;2023-02-15T06:39:25;1.60;99.90
16384;DHT22;8301;51.440;6.610;2023-02-15T06:41:52;1.60;99.90
16384;DHT22;8301;51.440;6.610;2023-02-15T06:44:19;1.60;99.90
16384;DHT22;8301;51.440;6.610;2023-02-15T06:46:47;1.60;99.90
16384;DHT22;8301;51.440;6.610;2023-02-15T06:49:15;1.50;99.90
16384;DHT22;8301;51.440;6.610;2023-02-15T06:51:42;1.50;99.90
16384;DHT22;8301;51.440;6.610;2023-02-15T06:54:09;1.50;99.90
16384;DHT22;8301;51.440;6.610;2023-02-15T06:56:36;1.50;99.90
16384;DHT22;8301;51.440;6.610;2023-02-15T06:59:04;1.60;99.90
16384;DHT22;8301;51.440;6.610;2023-02-15T07:01:31;1.60;99.90
16384;DHT22;8301;51.440;6.610;2023-02-15T07:03:58;1.60;99.90
16384;DHT22;8301;51.440;6.610;2023-02-15T07:06:25;1.60;99.90
16384;DHT22;8301;51.440;6.610;2023-02-15T07:08:51;1.60;99.90
16384;DHT22;8301;51.440;6.610;2023-02-15T07:11:18;1.60;99.90
16384;DHT22;8301;51.440;6.610;2023-02-15T07:14:03;1.70;99.90
16384;DHT22;8301;51.440;6.610;2023-02-15T07:16:30;1.70;99.90
16384;DHT22;8301;51.440;6.610;2023-02-15T07:18:58;1.70;99.90
16384;DHT22;8301;51.440;6.610;2023-02-15T07:21:24;1.80;99.90
16384;DHT22;8301;51.440;6.610;2023-02-15T07:23:51;1.80;99.90
16384;DHT22;8301;51.440;6.610;2023-02-15T07:26:19;1.90;99.90
16384;DHT22;8301;51.440;6.610;2023-02-15T07:28:52;2.00;99.90
16384;DHT22;8301;51.440;6.610;2023-02-15T07:31:19;2.00;99.90
16384;DHT22;8301;51.440;6.610;2023-02-15T07:33:47;2.00;99.90
16384;DHT22;8301;51.440;6.610;2023-02-15T07:36:14;2.10;99.90
16384;DHT22;8301;51.440;6.610;2023-02-15T07:38:41;2.20;99.90
16384;DHT22;8301;51.440;6.610;2023-02-15T07:41:13;2.30;99.90
16384;DHT22;8301;51.440;6.610;2023-02-15T07:43:41;2.30;99.90
16384;DHT22;8301;51.440;6.610;2023-02-15T07:46:09;2.30;99.90
16384;DHT22;8301;51.440;6.610;2023-02-15T07:48:37;2.40;99.90
16384;DHT22;8301;51.440;6.610;2023-02-15T07:51:05;2.60;99.90
16384;DHT22;8301;51.440;6.610;2023-02-15T07:53:32;2.70;99.90
16384;DHT22;8301;51.440;6.610;2023-02-15T07:55:59;2.70;99.90
16384;DHT22;8301;51.440;6.610;2023-02-15T07:58:28;2.80;99.90
16384;DHT22;8301;51.440;6.610;2023-02-15T08:01:13;3.10;99.90
16384;DHT22;8301;51.440;6.610;2023-02-15T08:03:41;3.50;99.90
16384;DHT22;8301;51.440;6.610;2023-02-15T08:06:15;3.90;99.90
16384;DHT22;8301;51.440;6.610;2023-02-15T08:08:42;4.30;86.40
16384;DHT22;8301;51.440;6.610;2023-02-15T08:14:08;4.50;1.00
16384;DHT22;8301;51.440;6.610;2023-02-15T08:19:04;5.10;99.90
16384;DHT22;8301;51.440;6.610;2023-02-15T08:21:32;5.30;99.90
16384;DHT22;8301;51.440;6.610;2023-02-15T08:24:00;5.60;99.90
16384;DHT22;8301;51.440;6.610;2023-02-15T08:26:27;5.90;1.00
16384;DHT22;8301;51.440;6.610;2023-02-15T08:28:55;6.00;1.00
16384;DHT22;8301;51.440;6.610;2023-02-15T08:31:22;6.30;1.00
16384;DHT22;8301;51.440;6.610;2023-02-15T08:33:49;6.50;99.90
16384;DHT22;8301;51.440;6.610;2023-02-15T08:36:18;6.60;99.90
16384;DHT22;8301;51.440;6.610;2023-02-15T08:38:45;6.70;99.90
16384;DHT22;8301;51.440;6.610;2023-02-15T08:41:24;6.70;1.00
16384;DHT22;8301;51.440;6.610;2023-02-15T08:43:48;6.70;1.00
16384;DHT22;8301;51.440;6.610;2023-02-15T08:46:15;6.60;1.00
16384;DHT22;8301;51.440;6.610;2023-02-15T08:48:42;6.60;17.80
16384;DHT22;8301;51.440;6.610;2023-02-15T08:51:15;6.70;1.00
16384;DHT22;8301;51.440;6.610;2023-02-15T08:53:48;6.70;74.20
16384;DHT22;8301;51.440;6.610;2023-02-15T08:56:15;6.50;1.00
16384;DHT22;8301;51.440;6.610;2023-02-15T08:58:42;6.60;99.90
16384;DHT22;8301;51.440;6.610;2023-02-15T09:01:10;6.80;1.00
16384;DHT22;8301;51.440;6.610;2023-02-15T09:03:37;7.00;1.00
16384;DHT22;8301;51.440;6.610;2023-02-15T09:06:05;7.10;1.00
16384;DHT22;8301;51.440;6.610;2023-02-15T09:08:32;7.60;99.90
16384;DHT22;8301;51.440;6.610;2023-02-15T09:11:09;7.40;99.90
16384;DHT22;8301;51.440;6.610;2023-02-15T09:13:37;8.20;1.00
16384;DHT22;8301;51.440;6.610;2023-02-15T09:16:09;8.70;1.00
16384;DHT22;8301;51.440;6.610;2023-02-15T09:18:33;8.20;1.00
16384;DHT22;8301;51.440;6.610;2023-02-15T09:21:05;8.00;1.00
16384;DHT22;8301;51.440;6.610;2023-02-15T09:23:32;8.80;1.00
16384;DHT22;8301;51.440;6.610;2023-02-15T09:26:09;8.80;99.90
16384;DHT22;8301;51.440;6.610;2023-02-15T09:28:36;9.30;1.00
16384;DHT22;8301;51.440;6.610;2023-02-15T09:31:26;9.50;99.90
16384;DHT22;8301;51.440;6.610;2023-02-15T09:33:33;9.70;58.40
16384;DHT22;8301;51.440;6.610;2023-02-15T09:36:00;9.50;93.60
16384;DHT22;8301;51.440;6.610;2023-02-15T09:38:27;9.80;1.00
16384;DHT22;8301;51.440;6.610;2023-02-15T09:48:45;9.90;1.00
16384;DHT22;8301;51.440;6.610;2023-02-15T09:51:32;10.10;1.00
16384;DHT22;8301;51.440;6.610;2023-02-15T09:54:03;10.20;1.00
16384;DHT22;8301;51.440;6.610;2023-02-15T10:20:08;8.80;99.90
16384;DHT22;8301;51.440;6.610;2023-02-15T10:25:22;8.50;99.90
16384;DHT22;8301;51.440;6.610;2023-02-15T10:27:46;8.30;1.00
16384;DHT22;8301;51.440;6.610;2023-02-15T10:33:03;8.40;99.90
16384;DHT22;8301;51.440;6.610;2023-02-15T10:38:21;8.10;1.00
16384;DHT22;8301;51.440;6.610;2023-02-15T10:57:18;8.20;1.00
16384;DHT22;8301;51.440;6.610;2023-02-15T11:00:01;8.20;1.00
16384;DHT22;8301;51.440;6.610;2023-02-15T11:02:33;8.30;1.00
16384;DHT22;8301;51.440;6.610;2023-02-15T11:07:27;8.50;1.00
16384;DHT22;8301;51.440;6.610;2023-02-15T11:10:00;8.60;1.00
16384;DHT22;8301;51.440;6.610;2023-02-15T11:12:23;8.50;1.00
16384;DHT22;8301;51.440;6.610;2023-02-15T11:14:52;8.60;1.00
16384;DHT22;8301;51.440;6.610;2023-02-15T11:17:25;8.70;1.00
16384;DHT22;8301;51.440;6.610;2023-02-15T11:22:29;9.00;1.00
16384;DHT22;8301;51.440;6.610;2023-02-15T11:24:57;8.90;99.90
16384;DHT22;8301;51.440;6.610;2023-02-15T11:27:34;9.00;1.00
16384;DHT22;8301;51.440;6.610;2023-02-15T11:30:09;9.00;99.90
16384;DHT22;8301;51.440;6.610;2023-02-15T11:32:35;9.20;1.00
16384;DHT22;8301;51.440;6.610;2023-02-15T11:37:50;9.30;99.90
16384;DHT22;8301;51.440;6.610;2023-02-15T11:42:56;9.50;99.90
16384;DHT22;8301;51.440;6.610;2023-02-15T11:45:29;9.50;99.90
16384;DHT22;8301;51.440;6.610;2023-02-15T11:47:57;9.60;99.90
16384;DHT22;8301;51.440;6.610;2023-02-15T11:50:25;9.60;99.90
16384;DHT22;8301;51.440;6.610;2023-02-15T11:52:56;9.80;99.90
16384;DHT22;8301;51.440;6.610;2023-02-15T11:55:22;9.80;99.90
16384;DHT22;8301;51.440;6.610;2023-02-15T11:58:01;10.00;99.90
16384;DHT22;8301;51.440;6.610;2023-02-15T12:03:04;9.90;99.90
16384;DHT22;8301;51.440;6.610;2023-02-15T12:05:30;9.70;52.80
16384;DHT22;8301;51.440;6.610;2023-02-15T12:08:16;9.70;99.90
16384;DHT22;8301;51.440;6.610;2023-02-15T12:10:52;9.70;99.90
16384;DHT22;8301;51.440;6.610;2023-02-15T12:13:14;9.70;99.90
16384;DHT22;8301;51.440;6.610;2023-02-15T12:15:50;10.00;99.90
16384;DHT22;8301;51.440;6.610;2023-02-15T12:20:59;10.20;1.00
16384;DHT22;8301;51.440;6.610;2023-02-15T12:23:28;10.30;1.00
16384;DHT22;8301;51.440;6.610;2023-02-15T12:25:56;10.30;1.00
16384;DHT22;8301;51.440;6.610;2023-02-15T12:28:31;10.50;1.00
16384;DHT22;8301;51.440;6.610;2023-02-15T12:30:57;10.60;1.00
16384;DHT22;8301;51.440;6.610;2023-02-15T12:36:00;10.90;1.00
16384;DHT22;8301;51.440;6.610;2023-02-15T12:38:28;11.00;1.00
16384;DHT22;8301;51.440;6.610;2023-02-15T12:41:03;11.10;1.00
16384;DHT22;8301;51.440;6.610;2023-02-15T12:43:32;10.90;1.00
16384;DHT22;8301;51.440;6.610;2023-02-15T12:45:55;11.00;1.00
16384;DHT22;8301;51.440;6.610;2023-02-15T12:48:23;11.00;1.00
16384;DHT22;8301;51.440;6.610;2023-02-15T12:50:50;11.10;1.00
16384;DHT22;8301;51.440;6.610;2023-02-15T12:53:23;11.00;1.00
16384;DHT22;8301;51.440;6.610;2023-02-15T12:58:39;11.00;1.00
16384;DHT22;8301;51.440;6.610;2023-02-15T13:03:59;11.20;1.00
16384;DHT22;8301;51.440;6.610;2023-02-15T13:06:28;11.50;1.00
16384;DHT22;8301;51.440;6.610;2023-02-15T13:09:05;11.60;1.00
16384;DHT22;8301;51.440;6.610;2023-02-15T13:11:28;11.70;1.00
16384;DHT22;8301;51.440;6.610;2023-02-15T13:13:53;11.70;1.00
16384;DHT22;8301;51.440;6.610;2023-02-15T13:16:27;11.70;1.00
16384;DHT22;8301;51.440;6.610;2023-02-15T13:18:49;11.80;1.00
16384;DHT22;8301;51.440;6.610;2023-02-15T13:21:37;11.60;1.00
16384;DHT22;8301;51.440;6.610;2023-02-15T13:26:49;11.70;1.00
16384;DHT22;8301;51.440;6.610;2023-02-15T13:29:23;11.70;1.00
16384;DHT22;8301;51.440;6.610;2023-02-15T13:31:50;11.80;1.00
16384;DHT22;8301;51.440;6.610;2023-02-15T13:42:30;11.90;1.00
16384;DHT22;8301;51.440;6.610;2023-02-15T13:50:10;12.40;1.00
16384;DHT22;8301;51.440;6.610;2023-02-15T13:52:42;12.50;1.00
16384;DHT22;8301;51.440;6.610;2023-02-15T13:55:21;12.60;99.90
16384;DHT22;8301;51.440;6.610;2023-02-15T13:57:56;12.50;99.90
16384;DHT22;8301;51.440;6.610;2023-02-15T14:08:34;12.40;99.90
16384;DHT22;8301;51.440;6.610;2023-02-15T14:10:59;12.40;1.00
16384;DHT22;8301;51.440;6.610;2023-02-15T14:16:05;12.40;99.90
16384;DHT22;8301;51.440;6.610;2023-02-15T14:18:51;12.50;1.00
16384;DHT22;8301;51.440;6.610;2023-02-15T14:26:17;12.40;1.00
16384;DHT22;8301;51.440;6.610;2023-02-15T14:28:45;12.30;99.90
16384;DHT22;8301;51.440;6.610;2023-02-15T14:31:12;12.20;99.90
16384;DHT22;8301;51.440;6.610;2023-02-15T14:33:50;12.20;1.00
16384;DHT22;8301;51.440;6.610;2023-02-15T14:36:13;12.10;1.00
16384;DHT22;8301;51.440;6.610;2023-02-15T14:41:23;12.10;1.00
16384;DHT22;8301;51.440;6.610;2023-02-15T14:49:21;12.20;1.00
16384;DHT22;8301;51.440;6.610;2023-02-15T14:56:45;12.10;1.00
16384;DHT22;8301;51.440;6.610;2023-02-15T14:59:18;12.00;1.00
16384;DHT22;8301;51.440;6.610;2023-02-15T15:01:58;12.00;1.00
16384;DHT22;8301;51.440;6.610;2023-02-15T15:04:33;12.00;1.00
16384;DHT22;8301;51.440;6.610;2023-02-15T15:09:30;12.00;1.00
16384;DHT22;8301;51.440;6.610;2023-02-15T15:12:36;12.00;1.00
16384;DHT22;8301;51.440;6.610;2023-02-15T15:17:00;11.90;1.00
16384;DHT22;8301;51.440;6.610;2023-02-15T15:22:21;12.00;1.00
16384;DHT22;8301;51.440;6.610;2023-02-15T15:32:43;12.00;1.00
16384;DHT22;8301;51.440;6.610;2023-02-15T15:43:30;11.90;1.00
16384;DHT22;8301;51.440;6.610;2023-02-15T15:48:28;11.80;1.00
16384;DHT22;8301;51.440;6.610;2023-02-15T15:50:59;11.70;1.00
16384;DHT22;8301;51.440;6.610;2023-02-15T15:53:38;11.60;1.00
16384;DHT22;8301;51.440;6.610;2023-02-15T15:56:08;11.50;1.00
16384;DHT22;8301;51.440;6.610;2023-02-15T15:58:30;11.50;1.00
16384;DHT22;8301;51.440;6.610;2023-02-15T16:01:05;11.40;1.00
16384;DHT22;8301;51.440;6.610;2023-02-15T16:03:29;11.40;4.30
16384;DHT22;8301;51.440;6.610;2023-02-15T16:05:56;11.30;1.00
16384;DHT22;8301;51.440;6.610;2023-02-15T16:08:35;11.30;1.00
16384;DHT22;8301;51.440;6.610;2023-02-15T16:11:24;11.10;1.00
16384;DHT22;8301;51.440;6.610;2023-02-15T16:13:30;11.10;90.00
16384;DHT22;8301;51.440;6.610;2023-02-15T16:15:57;11.00;1.40
16384;DHT22;8301;51.440;6.610;2023-02-15T16:18:25;10.90;96.10
16384;DHT22;8301;51.440;6.610;2023-02-15T16:20:56;10.70;99.90
16384;DHT22;8301;51.440;6.610;2023-02-15T16:28:51;10.40;1.00
16384;DHT22;8301;51.440;6.610;2023-02-15T16:31:18;10.30;1.00
16384;DHT22;8301;51.440;6.610;2023-02-15T16:33:48;10.20;1.00
16384;DHT22;8301;51.440;6.610;2023-02-15T16:36:23;10.10;1.00
16384;DHT22;8301;51.440;6.610;2023-02-15T16:41:25;10.00;1.00
16384;DHT22;8301;51.440;6.610;2023-02-15T16:44:03;10.00;1.00
16384;DHT22;8301;51.440;6.610;2023-02-15T16:48:56;9.80;1.00
16384;DHT22;8301;51.440;6.610;2023-02-15T16:51:25;9.70;96.90
16384;DHT22;8301;51.440;6.610;2023-02-15T16:53:53;9.60;99.90
16384;DHT22;8301;51.440;6.610;2023-02-15T16:56:27;9.60;99.90
16384;DHT22;8301;51.440;6.610;2023-02-15T16:58:54;9.50;99.90
16384;DHT22;8301;51.440;6.610;2023-02-15T17:01:24;9.40;99.90
16384;DHT22;8301;51.440;6.610;2023-02-15T17:03:51;9.40;1.00
16384;DHT22;8301;51.440;6.610;2023-02-15T17:06:23;9.30;1.00
16384;DHT22;8301;51.440;6.610;2023-02-15T17:09:03;9.30;1.00
16384;DHT22;8301;51.440;6.610;2023-02-15T17:11:21;9.30;1.00
16384;DHT22;8301;51.440;6.610;2023-02-15T17:16:35;9.20;1.00
16384;DHT22;8301;51.440;6.610;2023-02-15T17:21:32;9.10;1.00
16384;DHT22;8301;51.440;6.610;2023-02-15T17:24:00;9.10;1.00
16384;DHT22;8301;51.440;6.610;2023-02-15T17:26:33;9.10;1.00
16384;DHT22;8301;51.440;6.610;2023-02-15T17:31:48;9.00;1.00
16384;DHT22;8301;51.440;6.610;2023-02-15T17:37:01;9.00;1.00
16384;DHT22;8301;51.440;6.610;2023-02-15T17:39:32;9.00;1.00
16384;DHT22;8301;51.440;6.610;2023-02-15T17:41:59;8.90;1.00
16384;DHT22;8301;51.440;6.610;2023-02-15T17:44:26;8.90;1.00
16384;DHT22;8301;51.440;6.610;2023-02-15T17:46:53;8.90;1.00
16384;DHT22;8301;51.440;6.610;2023-02-15T17:49:24;8.80;99.90
16384;DHT22;8301;51.440;6.610;2023-02-15T17:51:53;8.80;79.40
16384;DHT22;8301;51.440;6.610;2023-02-15T17:54:20;8.80;99.90
16384;DHT22;8301;51.440;6.610;2023-02-15T17:57:10;8.80;99.90
16384;DHT22;8301;51.440;6.610;2023-02-15T17:59:33;8.80;99.90
16384;DHT22;8301;51.440;6.610;2023-02-15T18:02:09;8.80;99.90
16384;DHT22;8301;51.440;6.610;2023-02-15T18:04:55;8.70;99.90
16384;DHT22;8301;51.440;6.610;2023-02-15T18:07:40;8.70;99.90
16384;DHT22;8301;51.440;6.610;2023-02-15T18:10:25;8.70;99.90
16384;DHT22;8301;51.440;6.610;2023-02-15T18:13:10;8.70;1.00
16384;DHT22;8301;51.440;6.610;2023-02-15T18:15:37;8.60;1.00
16384;DHT22;8301;51.440;6.610;2023-02-15T18:18:04;8.60;1.00
16384;DHT22;8301;51.440;6.610;2023-02-15T18:20:32;8.60;1.00
16384;DHT22;8301;51.440;6.610;2023-02-15T18:22:59;8.60;1.00
16384;DHT22;8301;51.440;6.610;2023-02-15T18:25:27;8.50;1.00
16384;DHT22;8301;51.440;6.610;2023-02-15T18:27:53;8.50;1.00
16384;DHT22;8301;51.440;6.610;2023-02-15T18:30:21;8.50;1.00
16384;DHT22;8301;51.440;6.610;2023-02-15T18:32:49;8.50;1.00
16384;DHT22;8301;51.440;6.610;2023-02-15T18:35:20;8.50;1.00
16384;DHT22;8301;51.440;6.610;2023-02-15T18:37:50;8.50;1.00
16384;DHT22;8301;51.440;6.610;2023-02-15T18:40:18;8.40;1.00
16384;DHT22;8301;51.440;6.610;2023-02-15T18:42:45;8.40;1.00
16384;DHT22;8301;51.440;6.610;2023-02-15T18:45:22;8.40;1.00
16384;DHT22;8301;51.440;6.610;2023-02-15T18:47:50;8.30;1.00
16384;DHT22;8301;51.440;6.610;2023-02-15T18:50:18;8.30;99.90
16384;DHT22;8301;51.440;6.610;2023-02-15T18:52:45;8.30;99.90
16384;DHT22;8301;51.440;6.610;2023-02-15T18:55:20;8.20;99.90
16384;DHT22;8301;51.440;6.610;2023-02-15T18:57:48;8.20;99.90
16384;DHT22;8301;51.440;6.610;2023-02-15T19:00:16;8.10;1.00
16384;DHT22;8301;51.440;6.610;2023-02-15T19:02:44;8.10;1.00
16384;DHT22;8301;51.440;6.610;2023-02-15T19:05:11;8.10;1.00
16384;DHT22;8301;51.440;6.610;2023-02-15T19:07:39;8.00;1.00
16384;DHT22;8301;51.440;6.610;2023-02-15T19:10:10;7.90;1.00
16384;DHT22;8301;51.440;6.610;2023-02-15T19:12:37;7.90;99.90
16384;DHT22;8301;51.440;6.610;2023-02-15T19:15:04;7.80;1.00
16384;DHT22;8301;51.440;6.610;2023-02-15T19:17:31;7.80;1.00
16384;DHT22;8301;51.440;6.610;2023-02-15T19:19:58;7.80;1.00
16384;DHT22;8301;51.440;6.610;2023-02-15T19:22:25;7.70;99.90
16384;DHT22;8301;51.440;6.610;2023-02-15T19:24:52;7.60;1.00
16384;DHT22;8301;51.440;6.610;2023-02-15T19:29:49;7.60;1.00
16384;DHT22;8301;51.440;6.610;2023-02-15T19:32:16;7.60;1.00
16384;DHT22;8301;51.440;6.610;2023-02-15T19:34:43;7.50;99.90
16384;DHT22;8301;51.440;6.610;2023-02-15T19:38:13;7.50;1.00
16384;DHT22;8301;51.440;6.610;2023-02-15T19:39:47;7.40;99.90
16384;DHT22;8301;51.440;6.610;2023-02-15T19:42:15;7.40;1.00
16384;DHT22;8301;51.440;6.610;2023-02-15T19:44:42;7.40;99.90
16384;DHT22;8301;51.440;6.610;2023-02-15T19:47:10;7.40;99.90
16384;DHT22;8301;51.440;6.610;2023-02-15T19:49:37;7.30;1.00
16384;DHT22;8301;51.440;6.610;2023-02-15T19:52:04;7.30;1.00